sensor_id;sensor_type;location;lat;lon;timestamp;temperature;humidity
16964;DHT22;8598;50.508;10.436;2023-07-20T00:01:33;14.60;99.90
16964;DHT22;8598;50.508;10.436;2023-07-20T00:04:00;14.60;99.90
16964;DHT22;8598;50.508;10.436;2023-07-20T00:06:26;14.60;99.90
16964;DHT22;8598;50.508;10.436;2023-07-20T00:08:53;14.70;99.90
16964;DHT22;8598;50.508;10.436;2023-07-20T00:11:20;14.60;99.90
16964;DHT22;8598;50.508;10.436;2023-07-20T00:13:49;14.70;99.90
16964;DHT22;8598;50.508;10.436;2023-07-20T00:16:15;14.60;99.90
16964;DHT22;8598;50.508;10.436;2023-07-20T00:18:42;14.60;99.90
16964;DHT22;8598;50.508;10.436;2023-07-20T00:21:09;14.60;99.90
16964;DHT22;8598;50.508;10.436;2023-07-20T00:23:35;14.60;99.90
16964;DHT22;8598;50.508;10.436;2023-07-20T00:26:02;14.60;99.90
16964;DHT22;8598;50.508;10.436;2023-07-20T00:28:29;14.60;99.90
16964;DHT22;8598;50.508;10.436;2023-07-20T00:30:59;14.40;99.90
16964;DHT22;8598;50.508;10.436;2023-07-20T00:33:25;14.40;99.90
16964;DHT22;8598;50.508;10.436;2023-07-20T00:35:52;14.30;99.90
16964;DHT22;8598;50.508;10.436;2023-07-20T00:38:19;14.30;99.90
16964;DHT22;8598;50.508;10.436;2023-07-20T00:40:46;14.30;99.90
16964;DHT22;8598;50.508;10.436;2023-07-20T00:43:13;14.30;99.90
16964;DHT22;8598;50.508;10.436;2023-07-20T00:45:40;14.20;99.90
16964;DHT22;8598;50.508;10.436;2023-07-20T00:48:09;14.20;99.90
16964;DHT22;8598;50.508;10.436;2023-07-20T00:50:36;14.10;99.90
16964;DHT22;8598;50.508;10.436;2023-07-20T00:53:04;14.00;99.90
16964;DHT22;8598;50.508;10.436;2023-07-20T00:55:31;14.10;99.90
16964;DHT22;8598;50.508;10.436;2023-07-20T00:57:58;14.10;99.90
16964;DHT22;8598;50.508;10.436;2023-07-20T01:00:25;14.00;99.90
16964;DHT22;8598;50.508;10.436;2023-07-20T01:02:53;14.00;99.90
16964;DHT22;8598;50.508;10.436;2023-07-20T01:05:21;14.00;99.90
16964;DHT22;8598;50.508;10.436;2023-07-20T01:07:55;14.00;99.90
16964;DHT22;8598;50.508;10.436;2023-07-20T01:10:29;14.00;99.90
16964;DHT22;8598;50.508;10.436;2023-07-20T01:12:57;13.90;99.90
16964;DHT22;8598;50.508;10.436;2023-07-20T01:15:26;13.90;99.90
16964;DHT22;8598;50.508;10.436;2023-07-20T01:17:53;13.90;99.90
16964;DHT22;8598;50.508;10.436;2023-07-20T01:20:22;13.90;99.90
16964;DHT22;8598;50.508;10.436;2023-07-20T01:23:06;13.70;99.90
16964;DHT22;8598;50.508;10.436;2023-07-20T01:25:45;13.60;99.90
16964;DHT22;8598;50.508;10.436;2023-07-20T01:31:24;13.50;99.90
16964;DHT22;8598;50.508;10.436;2023-07-20T01:33:54;13.40;99.90
16964;DHT22;8598;50.508;10.436;2023-07-20T01:36:23;13.40;99.90
16964;DHT22;8598;50.508;10.436;2023-07-20T01:38:52;13.30;99.90
16964;DHT22;8598;50.508;10.436;2023-07-20T01:41:19;13.30;99.90
16964;DHT22;8598;50.508;10.436;2023-07-20T01:43:46;13.30;99.90
16964;DHT22;8598;50.508;10.436;2023-07-20T01:46:12;13.20;99.90
16964;DHT22;8598;50.508;10.436;2023-07-20T01:48:40;13.20;99.90
16964;DHT22;8598;50.508;10.436;2023-07-20T01:51:07;13.20;99.90
16964;DHT22;8598;50.508;10.436;2023-07-20T01:53:34;13.20;99.90
16964;DHT22;8598;50.508;10.436;2023-07-20T01:56:01;13.20;99.90
16964;DHT22;8598;50.508;10.436;2023-07-20T01:58:27;13.00;99.90
16964;DHT22;8598;50.508;10.436;2023-07-20T02:00:54;13.00;99.90
16964;DHT22;8598;50.508;10.436;2023-07-20T02:03:21;13.00;99.90
16964;DHT22;8598;50.508;10.436;2023-07-20T02:05:50;12.80;99.90
16964;DHT22;8598;50.508;10.436;2023-07-20T02:08:17;12.80;99.90
16964;DHT22;8598;50.508;10.436;2023-07-20T02:10:47;12.80;99.90
16964;DHT22;8598;50.508;10.436;2023-07-20T02:13:13;12.70;99.90
16964;DHT22;8598;50.508;10.436;2023-07-20T02:15:41;12.60;99.90
16964;DHT22;8598;50.508;10.436;2023-07-20T02:18:08;12.60;99.90
16964;DHT22;8598;50.508;10.436;2023-07-20T02:20:35;12.60;99.90
16964;DHT22;8598;50.508;10.436;2023-07-20T02:23:03;12.50;99.90
16964;DHT22;8598;50.508;10.436;2023-07-20T02:25:30;12.40;99.90
16964;DHT22;8598;50.508;10.436;2023-07-20T02:27:57;12.30;99.90
16964;DHT22;8598;50.508;10.436;2023-07-20T02:30:24;12.30;99.90
16964;DHT22;8598;50.508;10.436;2023-07-20T02:32:52;12.30;99.90
16964;DHT22;8598;50.508;10.436;2023-07-20T02:35:19;12.30;99.90
16964;DHT22;8598;50.508;10.436;2023-07-20T02:37:46;12.30;99.90
16964;DHT22;8598;50.508;10.436;2023-07-20T02:40:14;12.20;99.90
16964;DHT22;8598;50.508;10.436;2023-07-20T02:42:41;12.20;99.90
16964;DHT22;8598;50.508;10.436;2023-07-20T02:45:08;12.10;99.90
16964;DHT22;8598;50.508;10.436;2023-07-20T02:47:35;12.00;99.90
16964;DHT22;8598;50.508;10.436;2023-07-20T02:50:02;12.00;99.90
16964;DHT22;8598;50.508;10.436;2023-07-20T02:52:29;11.90;99.90
16964;DHT22;8598;50.508;10.436;2023-07-20T02:54:55;11.90;99.90
16964;DHT22;8598;50.508;10.436;2023-07-20T02:57:23;11.80;99.90
16964;DHT22;8598;50.508;10.436;2023-07-20T02:59:50;11.90;99.90
16964;DHT22;8598;50.508;10.436;2023-07-20T03:02:17;11.90;99.90
16964;DHT22;8598;50.508;10.436;2023-07-20T03:04:43;11.90;99.90
16964;DHT22;8598;50.508;10.436;2023-07-20T03:07:10;11.90;99.90
16964;DHT22;8598;50.508;10.436;2023-07-20T03:09:37;11.80;99.90
16964;DHT22;8598;50.508;10.436;2023-07-20T03:12:06;11.80;99.90
16964;DHT22;8598;50.508;10.436;2023-07-20T03:14:34;11.70;99.90
16964;DHT22;8598;50.508;10.436;2023-07-20T03:17:00;11.70;99.90
16964;DHT22;8598;50.508;10.436;2023-07-20T03:19:27;11.70;99.90
16964;DHT22;8598;50.508;10.436;2023-07-20T03:21:54;11.90;99.90
16964;DHT22;8598;50.508;10.436;2023-07-20T03:24:21;12.00;99.90
16964;DHT22;8598;50.508;10.436;2023-07-20T03:26:49;12.00;99.90
16964;DHT22;8598;50.508;10.436;2023-07-20T03:29:15;12.10;99.90
16964;DHT22;8598;50.508;10.436;2023-07-20T03:31:43;12.00;99.90
16964;DHT22;8598;50.508;10.436;2023-07-20T03:34:10;11.80;99.90
16964;DHT22;8598;50.508;10.436;2023-07-20T03:36:37;11.80;99.90
16964;DHT22;8598;50.508;10.436;2023-07-20T03:39:03;11.80;99.90
16964;DHT22;8598;50.508;10.436;2023-07-20T03:41:30;11.80;99.90
16964;DHT22;8598;50.508;10.436;2023-07-20T03:43:57;11.90;99.90
16964;DHT22;8598;50.508;10.436;2023-07-20T03:46:24;12.00;99.90
16964;DHT22;8598;50.508;10.436;2023-07-20T03:48:52;12.00;99.90
16964;DHT22;8598;50.508;10.436;2023-07-20T03:51:18;12.00;99.90
16964;DHT22;8598;50.508;10.436;2023-07-20T03:53:45;11.90;99.90
16964;DHT22;8598;50.508;10.436;2023-07-20T03:56:12;12.10;99.90
16964;DHT22;8598;50.508;10.436;2023-07-20T03:58:38;12.10;99.90
16964;DHT22;8598;50.508;10.436;2023-07-20T04:01:06;12.10;99.90
16964;DHT22;8598;50.508;10.436;2023-07-20T04:03:33;12.10;99.90
16964;DHT22;8598;50.508;10.436;2023-07-20T04:06:02;12.10;99.90
16964;DHT22;8598;50.508;10.436;2023-07-20T04:08:29;12.10;99.90
16964;DHT22;8598;50.508;10.436;2023-07-20T04:10:55;12.10;99.90
16964;DHT22;8598;50.508;10.436;2023-07-20T04:13:22;12.10;99.90
16964;DHT22;8598;50.508;10.436;2023-07-20T04:15:49;12.10;99.90
16964;DHT22;8598;50.508;10.436;2023-07-20T04:18:15;12.10;99.90
16964;DHT22;8598;50.508;10.436;2023-07-20T04:20:42;12.20;99.90
16964;DHT22;8598;50.508;10.436;2023-07-20T04:23:10;12.20;99.90
16964;DHT22;8598;50.508;10.436;2023-07-20T04:25:39;12.40;99.90
16964;DHT22;8598;50.508;10.436;2023-07-20T04:28:06;12.40;99.90
16964;DHT22;8598;50.508;10.436;2023-07-20T04:30:35;12.40;99.90
16964;DHT22;8598;50.508;10.436;2023-07-20T04:33:02;12.50;99.90
16964;DHT22;8598;50.508;10.436;2023-07-20T04:35:46;12.60;99.90
16964;DHT22;8598;50.508;10.436;2023-07-20T04:38:14;12.70;99.90
16964;DHT22;8598;50.508;10.436;2023-07-20T04:40:43;12.70;99.90
16964;DHT22;8598;50.508;10.436;2023-07-20T04:43:10;12.80;99.90
16964;DHT22;8598;50.508;10.436;2023-07-20T04:45:37;12.80;99.90
16964;DHT22;8598;50.508;10.436;2023-07-20T04:48:06;12.90;99.90
16964;DHT22;8598;50.508;10.436;2023-07-20T04:50:33;12.90;99.90
16964;DHT22;8598;50.508;10.436;2023-07-20T04:53:00;13.00;99.90
16964;DHT22;8598;50.508;10.436;2023-07-20T04:55:28;13.10;99.90
16964;DHT22;8598;50.508;10.436;2023-07-20T04:57:55;13.10;99.90
16964;DHT22;8598;50.508;10.436;2023-07-20T05:00:22;13.20;99.90
16964;DHT22;8598;50.508;10.436;2023-07-20T05:02:49;13.20;99.90
16964;DHT22;8598;50.508;10.436;2023-07-20T05:05:16;13.30;99.90
16964;DHT22;8598;50.508;10.436;2023-07-20T05:07:42;13.80;99.90
16964;DHT22;8598;50.508;10.436;2023-07-20T05:10:09;14.60;99.90
16964;DHT22;8598;50.508;10.436;2023-07-20T05:12:37;15.30;99.90
16964;DHT22;8598;50.508;10.436;2023-07-20T05:15:04;15.90;99.90
16964;DHT22;8598;50.508;10.436;2023-07-20T05:17:31;16.50;99.90
16964;DHT22;8598;50.508;10.436;2023-07-20T05:19:58;16.80;99.90
16964;DHT22;8598;50.508;10.436;2023-07-20T05:22:25;17.50;99.90
16964;DHT22;8598;50.508;10.436;2023-07-20T05:24:51;18.50;99.90
16964;DHT22;8598;50.508;10.436;2023-07-20T05:27:18;19.30;99.90
16964;DHT22;8598;50.508;10.436;2023-07-20T05:29:46;19.40;99.90
16964;DHT22;8598;50.508;10.436;2023-07-20T05:32:13;19.50;99.90
16964;DHT22;8598;50.508;10.436;2023-07-20T05:34:40;19.30;99.90
16964;DHT22;8598;50.508;10.436;2023-07-20T05:37:07;18.80;99.90
16964;DHT22;8598;50.508;10.436;2023-07-20T05:39:33;18.60;99.90
16964;DHT22;8598;50.508;10.436;2023-07-20T05:42:00;18.30;99.90
16964;DHT22;8598;50.508;10.436;2023-07-20T05:44:27;18.10;99.90
16964;DHT22;8598;50.508;10.436;2023-07-20T05:46:55;17.70;99.90
16964;DHT22;8598;50.508;10.436;2023-07-20T05:49:22;17.40;99.90
16964;DHT22;8598;50.508;10.436;2023-07-20T05:51:48;17.00;99.90
16964;DHT22;8598;50.508;10.436;2023-07-20T05:54:15;17.00;99.90
16964;DHT22;8598;50.508;10.436;2023-07-20T05:56:42;17.10;99.90
16964;DHT22;8598;50.508;10.436;2023-07-20T05:59:08;17.30;99.90
16964;DHT22;8598;50.508;10.436;2023-07-20T06:01:35;17.50;99.90
16964;DHT22;8598;50.508;10.436;2023-07-20T06:04:03;17.70;99.90
16964;DHT22;8598;50.508;10.436;2023-07-20T06:06:30;17.90;99.90
16964;DHT22;8598;50.508;10.436;2023-07-20T06:08:57;17.80;99.90
16964;DHT22;8598;50.508;10.436;2023-07-20T06:11:23;18.30;99.90
16964;DHT22;8598;50.508;10.436;2023-07-20T06:13:50;18.60;99.90
16964;DHT22;8598;50.508;10.436;2023-07-20T06:16:17;18.90;99.90
16964;DHT22;8598;50.508;10.436;2023-07-20T06:18:44;19.00;99.90
16964;DHT22;8598;50.508;10.436;2023-07-20T06:21:12;19.10;99.90
16964;DHT22;8598;50.508;10.436;2023-07-20T06:23:39;19.30;99.90
16964;DHT22;8598;50.508;10.436;2023-07-20T06:26:06;19.30;99.90
16964;DHT22;8598;50.508;10.436;2023-07-20T06:28:33;19.10;99.90
16964;DHT22;8598;50.508;10.436;2023-07-20T06:31:00;18.60;99.90
16964;DHT22;8598;50.508;10.436;2023-07-20T06:33:27;18.60;99.90
16964;DHT22;8598;50.508;10.436;2023-07-20T06:35:54;18.40;99.90
16964;DHT22;8598;50.508;10.436;2023-07-20T06:38:23;18.60;99.90
16964;DHT22;8598;50.508;10.436;2023-07-20T06:40:51;19.00;99.90
16964;DHT22;8598;50.508;10.436;2023-07-20T06:43:17;19.10;99.90
16964;DHT22;8598;50.508;10.436;2023-07-20T06:45:44;19.10;99.90
16964;DHT22;8598;50.508;10.436;2023-07-20T06:48:11;19.20;99.90
16964;DHT22;8598;50.508;10.436;2023-07-20T06:50:38;19.10;99.90
16964;DHT22;8598;50.508;10.436;2023-07-20T06:53:04;19.20;99.90
16964;DHT22;8598;50.508;10.436;2023-07-20T06:55:32;19.00;99.90
16964;DHT22;8598;50.508;10.436;2023-07-20T06:57:59;18.90;99.90
16964;DHT22;8598;50.508;10.436;2023-07-20T07:00:26;18.70;99.90
16964;DHT22;8598;50.508;10.436;2023-07-20T07:02:52;18.90;99.90
16964;DHT22;8598;50.508;10.436;2023-07-20T07:05:19;19.10;99.90
16964;DHT22;8598;50.508;10.436;2023-07-20T07:07:46;19.20;99.90
16964;DHT22;8598;50.508;10.436;2023-07-20T07:10:13;20.00;99.90
16964;DHT22;8598;50.508;10.436;2023-07-20T07:12:41;21.00;99.90
16964;DHT22;8598;50.508;10.436;2023-07-20T07:15:09;21.00;99.90
16964;DHT22;8598;50.508;10.436;2023-07-20T07:17:36;21.40;99.90
16964;DHT22;8598;50.508;10.436;2023-07-20T07:20:04;22.00;99.90
16964;DHT22;8598;50.508;10.436;2023-07-20T07:22:33;23.20;99.90
16964;DHT22;8598;50.508;10.436;2023-07-20T07:24:59;22.60;99.90
16964;DHT22;8598;50.508;10.436;2023-07-20T07:27:26;21.80;99.90
16964;DHT22;8598;50.508;10.436;2023-07-20T07:29:54;21.30;99.90
16964;DHT22;8598;50.508;10.436;2023-07-20T07:32:21;20.70;99.90
16964;DHT22;8598;50.508;10.436;2023-07-20T07:34:47;20.50;99.90
16964;DHT22;8598;50.508;10.436;2023-07-20T07:37:14;20.00;99.90
16964;DHT22;8598;50.508;10.436;2023-07-20T07:39:41;20.10;99.90
16964;DHT22;8598;50.508;10.436;2023-07-20T07:42:08;20.80;99.90
16964;DHT22;8598;50.508;10.436;2023-07-20T07:44:35;20.80;99.90
16964;DHT22;8598;50.508;10.436;2023-07-20T07:47:03;21.20;99.90
16964;DHT22;8598;50.508;10.436;2023-07-20T07:49:31;21.50;99.90
16964;DHT22;8598;50.508;10.436;2023-07-20T07:51:57;21.70;99.90
16964;DHT22;8598;50.508;10.436;2023-07-20T07:54:25;21.40;99.90
16964;DHT22;8598;50.508;10.436;2023-07-20T07:56:52;21.30;99.90
16964;DHT22;8598;50.508;10.436;2023-07-20T07:59:19;21.10;99.90
16964;DHT22;8598;50.508;10.436;2023-07-20T08:01:45;20.60;99.90
16964;DHT22;8598;50.508;10.436;2023-07-20T08:04:13;20.50;99.90
16964;DHT22;8598;50.508;10.436;2023-07-20T08:06:40;20.10;99.90
16964;DHT22;8598;50.508;10.436;2023-07-20T08:09:07;20.00;99.90
16964;DHT22;8598;50.508;10.436;2023-07-20T08:11:33;19.70;99.90
16964;DHT22;8598;50.508;10.436;2023-07-20T08:14:00;19.30;99.90
16964;DHT22;8598;50.508;10.436;2023-07-20T08:16:27;19.30;99.90
16964;DHT22;8598;50.508;10.436;2023-07-20T08:18:54;19.30;99.90
16964;DHT22;8598;50.508;10.436;2023-07-20T08:21:22;19.30;99.90
16964;DHT22;8598;50.508;10.436;2023-07-20T08:23:48;19.50;99.90
16964;DHT22;8598;50.508;10.436;2023-07-20T08:26:15;19.80;99.90
16964;DHT22;8598;50.508;10.436;2023-07-20T08:28:43;20.10;99.90
16964;DHT22;8598;50.508;10.436;2023-07-20T08:31:10;20.20;99.90
16964;DHT22;8598;50.508;10.436;2023-07-20T08:33:37;20.40;99.90
16964;DHT22;8598;50.508;10.436;2023-07-20T08:36:04;20.30;99.90
16964;DHT22;8598;50.508;10.436;2023-07-20T08:38:32;20.90;99.90
16964;DHT22;8598;50.508;10.436;2023-07-20T08:40:59;22.30;99.90
16964;DHT22;8598;50.508;10.436;2023-07-20T08:43:27;22.90;99.90
16964;DHT22;8598;50.508;10.436;2023-07-20T08:45:55;24.00;99.90
16964;DHT22;8598;50.508;10.436;2023-07-20T08:48:22;24.20;99.90
16964;DHT22;8598;50.508;10.436;2023-07-20T08:50:51;24.50;99.90
16964;DHT22;8598;50.508;10.436;2023-07-20T08:53:18;24.50;99.90
16964;DHT22;8598;50.508;10.436;2023-07-20T08:55:49;23.60;99.90
16964;DHT22;8598;50.508;10.436;2023-07-20T08:58:17;22.60;99.90
16964;DHT22;8598;50.508;10.436;2023-07-20T09:00:44;22.00;99.90
16964;DHT22;8598;50.508;10.436;2023-07-20T09:03:11;22.80;99.90
16964;DHT22;8598;50.508;10.436;2023-07-20T09:05:38;23.50;99.90
16964;DHT22;8598;50.508;10.436;2023-07-20T09:08:06;24.30;99.90
16964;DHT22;8598;50.508;10.436;2023-07-20T09:10:32;24.40;99.90
16964;DHT22;8598;50.508;10.436;2023-07-20T09:13:00;23.60;99.90
16964;DHT22;8598;50.508;10.436;2023-07-20T09:15:29;22.70;99.90
16964;DHT22;8598;50.508;10.436;2023-07-20T09:17:55;21.60;99.90
16964;DHT22;8598;50.508;10.436;2023-07-20T09:20:22;21.20;99.90
16964;DHT22;8598;50.508;10.436;2023-07-20T09:22:50;20.70;99.90
16964;DHT22;8598;50.508;10.436;2023-07-20T09:25:18;21.00;99.90
16964;DHT22;8598;50.508;10.436;2023-07-20T09:27:46;21.00;99.90
16964;DHT22;8598;50.508;10.436;2023-07-20T09:30:15;21.00;99.90
16964;DHT22;8598;50.508;10.436;2023-07-20T09:32:44;21.20;99.90
16964;DHT22;8598;50.508;10.436;2023-07-20T09:35:15;21.20;99.90
16964;DHT22;8598;50.508;10.436;2023-07-20T09:37:53;21.20;99.90
16964;DHT22;8598;50.508;10.436;2023-07-20T09:40:21;21.00;99.90
16964;DHT22;8598;50.508;10.436;2023-07-20T09:42:48;20.70;99.90
16964;DHT22;8598;50.508;10.436;2023-07-20T09:45:16;20.60;99.90
16964;DHT22;8598;50.508;10.436;2023-07-20T09:47:42;20.60;99.90
16964;DHT22;8598;50.508;10.436;2023-07-20T09:50:09;20.40;99.90
16964;DHT22;8598;50.508;10.436;2023-07-20T09:52:40;20.40;99.90
16964;DHT22;8598;50.508;10.436;2023-07-20T09:55:10;20.60;99.90
16964;DHT22;8598;50.508;10.436;2023-07-20T09:57:38;20.60;99.90
16964;DHT22;8598;50.508;10.436;2023-07-20T10:00:07;20.90;99.90
16964;DHT22;8598;50.508;10.436;2023-07-20T10:02:42;21.50;99.90
16964;DHT22;8598;50.508;10.436;2023-07-20T10:05:11;21.80;99.90
16964;DHT22;8598;50.508;10.436;2023-07-20T10:07:44;22.00;99.90
16964;DHT22;8598;50.508;10.436;2023-07-20T10:10:14;21.60;99.90
16964;DHT22;8598;50.508;10.436;2023-07-20T10:12:41;21.60;99.90
16964;DHT22;8598;50.508;10.436;2023-07-20T10:15:11;21.70;99.90
16964;DHT22;8598;50.508;10.436;2023-07-20T10:17:47;21.30;99.90
16964;DHT22;8598;50.508;10.436;2023-07-20T10:20:17;21.00;99.90
16964;DHT22;8598;50.508;10.436;2023-07-20T10:22:47;21.20;99.90
16964;DHT22;8598;50.508;10.436;2023-07-20T10:25:16;21.40;99.90
16964;DHT22;8598;50.508;10.436;2023-07-20T10:27:43;21.90;99.90
16964;DHT22;8598;50.508;10.436;2023-07-20T10:30:10;22.60;99.90
16964;DHT22;8598;50.508;10.436;2023-07-20T10:32:38;23.10;99.90
16964;DHT22;8598;50.508;10.436;2023-07-20T10:35:13;23.40;99.90
16964;DHT22;8598;50.508;10.436;2023-07-20T10:37:51;23.30;99.90
16964;DHT22;8598;50.508;10.436;2023-07-20T10:40:28;23.60;99.90
16964;DHT22;8598;50.508;10.436;2023-07-20T10:43:00;24.20;99.90
16964;DHT22;8598;50.508;10.436;2023-07-20T10:45:36;24.40;99.90
16964;DHT22;8598;50.508;10.436;2023-07-20T10:48:04;23.90;99.90
16964;DHT22;8598;50.508;10.436;2023-07-20T10:50:32;23.60;99.90
16964;DHT22;8598;50.508;10.436;2023-07-20T10:53:11;23.40;99.90
16964;DHT22;8598;50.508;10.436;2023-07-20T10:55:38;23.20;99.90
16964;DHT22;8598;50.508;10.436;2023-07-20T10:58:08;23.00;99.90
16964;DHT22;8598;50.508;10.436;2023-07-20T11:00:37;22.40;99.90
16964;DHT22;8598;50.508;10.436;2023-07-20T11:03:04;22.00;99.90
16964;DHT22;8598;50.508;10.436;2023-07-20T11:05:39;21.20;99.90
16964;DHT22;8598;50.508;10.436;2023-07-20T11:08:09;21.00;99.90
16964;DHT22;8598;50.508;10.436;2023-07-20T11:10:36;20.80;99.90
16964;DHT22;8598;50.508;10.436;2023-07-20T11:13:20;20.60;99.90
16964;DHT22;8598;50.508;10.436;2023-07-20T11:16:01;20.60;99.90
16964;DHT22;8598;50.508;10.436;2023-07-20T11:18:28;20.90;99.90
16964;DHT22;8598;50.508;10.436;2023-07-20T11:20:57;21.00;99.90
16964;DHT22;8598;50.508;10.436;2023-07-20T11:23:24;21.20;99.90
16964;DHT22;8598;50.508;10.436;2023-07-20T11:25:51;21.10;99.90
16964;DHT22;8598;50.508;10.436;2023-07-20T11:28:18;20.60;99.90
16964;DHT22;8598;50.508;10.436;2023-07-20T11:30:44;20.50;99.90
16964;DHT22;8598;50.508;10.436;2023-07-20T11:33:11;20.40;99.90
16964;DHT22;8598;50.508;10.436;2023-07-20T11:35:42;20.50;99.90
16964;DHT22;8598;50.508;10.436;2023-07-20T11:38:12;20.40;99.90
16964;DHT22;8598;50.508;10.436;2023-07-20T11:40:42;20.30;99.90
16964;DHT22;8598;50.508;10.436;2023-07-20T11:43:10;19.70;99.90
16964;DHT22;8598;50.508;10.436;2023-07-20T11:45:38;19.70;99.90
16964;DHT22;8598;50.508;10.436;2023-07-20T11:48:05;19.40;99.90
16964;DHT22;8598;50.508;10.436;2023-07-20T11:50:31;19.10;99.90
16964;DHT22;8598;50.508;10.436;2023-07-20T11:52:58;19.30;99.90
16964;DHT22;8598;50.508;10.436;2023-07-20T11:55:26;19.40;99.90
16964;DHT22;8598;50.508;10.436;2023-07-20T11:58:03;19.50;99.90
16964;DHT22;8598;50.508;10.436;2023-07-20T12:00:30;19.60;99.90
16964;DHT22;8598;50.508;10.436;2023-07-20T12:02:57;19.50;99.90
16964;DHT22;8598;50.508;10.436;2023-07-20T12:05:24;19.60;99.90
16964;DHT22;8598;50.508;10.436;2023-07-20T12:07:51;20.10;99.90
16964;DHT22;8598;50.508;10.436;2023-07-20T12:10:25;20.40;99.90
16964;DHT22;8598;50.508;10.436;2023-07-20T12:12:53;20.60;99.90
16964;DHT22;8598;50.508;10.436;2023-07-20T12:15:21;20.90;99.90
16964;DHT22;8598;50.508;10.436;2023-07-20T12:17:50;20.90;99.90
16964;DHT22;8598;50.508;10.436;2023-07-20T12:20:25;21.10;99.90
16964;DHT22;8598;50.508;10.436;2023-07-20T12:22:52;21.00;99.90
16964;DHT22;8598;50.508;10.436;2023-07-20T12:25:19;20.90;99.90
16964;DHT22;8598;50.508;10.436;2023-07-20T12:27:48;20.80;99.90
16964;DHT22;8598;50.508;10.436;2023-07-20T12:30:15;20.70;99.90
16964;DHT22;8598;50.508;10.436;2023-07-20T12:32:42;20.60;99.90
16964;DHT22;8598;50.508;10.436;2023-07-20T12:35:09;20.70;99.90
16964;DHT22;8598;50.508;10.436;2023-07-20T12:37:37;21.00;99.90
16964;DHT22;8598;50.508;10.436;2023-07-20T12:40:04;21.10;99.90
16964;DHT22;8598;50.508;10.436;2023-07-20T12:42:36;21.30;99.90
16964;DHT22;8598;50.508;10.436;2023-07-20T12:45:06;21.20;99.90
16964;DHT22;8598;50.508;10.436;2023-07-20T12:47:33;21.40;99.90
16964;DHT22;8598;50.508;10.436;2023-07-20T12:50:00;21.70;99.90
16964;DHT22;8598;50.508;10.436;2023-07-20T12:52:26;21.40;99.90
16964;DHT22;8598;50.508;10.436;2023-07-20T12:54:53;21.30;99.90
16964;DHT22;8598;50.508;10.436;2023-07-20T12:57:20;21.30;99.90
16964;DHT22;8598;50.508;10.436;2023-07-20T12:59:47;21.10;99.90
16964;DHT22;8598;50.508;10.436;2023-07-20T13:02:15;21.50;99.90
16964;DHT22;8598;50.508;10.436;2023-07-20T13:04:41;21.50;99.90
16964;DHT22;8598;50.508;10.436;2023-07-20T13:07:10;21.70;99.90
16964;DHT22;8598;50.508;10.436;2023-07-20T13:09:37;21.40;99.90
16964;DHT22;8598;50.508;10.436;2023-07-20T13:12:05;21.20;99.90
16964;DHT22;8598;50.508;10.436;2023-07-20T13:14:31;21.50;99.90
16964;DHT22;8598;50.508;10.436;2023-07-20T13:16:58;21.70;99.90
16964;DHT22;8598;50.508;10.436;2023-07-20T13:19:26;21.70;99.90
16964;DHT22;8598;50.508;10.436;2023-07-20T13:21:53;22.00;99.90
16964;DHT22;8598;50.508;10.436;2023-07-20T13:24:20;22.10;99.90
16964;DHT22;8598;50.508;10.436;2023-07-20T13:26:46;22.00;99.90
16964;DHT22;8598;50.508;10.436;2023-07-20T13:29:13;21.90;99.90
16964;DHT22;8598;50.508;10.436;2023-07-20T13:31:40;21.70;99.90
16964;DHT22;8598;50.508;10.436;2023-07-20T13:34:06;21.40;99.90
16964;DHT22;8598;50.508;10.436;2023-07-20T13:36:34;21.40;99.90
16964;DHT22;8598;50.508;10.436;2023-07-20T13:39:01;21.80;99.90
16964;DHT22;8598;50.508;10.436;2023-07-20T13:41:30;21.90;99.90
16964;DHT22;8598;50.508;10.436;2023-07-20T13:43:57;22.00;99.90
16964;DHT22;8598;50.508;10.436;2023-07-20T13:46:24;22.10;99.90
16964;DHT22;8598;50.508;10.436;2023-07-20T13:48:51;22.20;99.90
16964;DHT22;8598;50.508;10.436;2023-07-20T13:51:17;22.10;99.90
16964;DHT22;8598;50.508;10.436;2023-07-20T13:53:48;21.70;99.90
16964;DHT22;8598;50.508;10.436;2023-07-20T13:56:14;21.70;99.90
16964;DHT22;8598;50.508;10.436;2023-07-20T13:58:41;21.60;99.90
16964;DHT22;8598;50.508;10.436;2023-07-20T14:01:08;21.60;99.90
16964;DHT22;8598;50.508;10.436;2023-07-20T14:03:34;21.30;99.90
16964;DHT22;8598;50.508;10.436;2023-07-20T14:06:03;21.20;99.90
16964;DHT22;8598;50.508;10.436;2023-07-20T14:08:29;21.20;99.90
16964;DHT22;8598;50.508;10.436;2023-07-20T14:10:57;21.20;99.90
16964;DHT22;8598;50.508;10.436;2023-07-20T14:13:24;21.60;99.90
16964;DHT22;8598;50.508;10.436;2023-07-20T14:15:51;21.80;99.90
16964;DHT22;8598;50.508;10.436;2023-07-20T14:18:18;21.90;99.90
16964;DHT22;8598;50.508;10.436;2023-07-20T14:20:44;22.10;99.90
16964;DHT22;8598;50.508;10.436;2023-07-20T14:23:11;22.30;99.90
16964;DHT22;8598;50.508;10.436;2023-07-20T14:25:38;22.60;99.90
16964;DHT22;8598;50.508;10.436;2023-07-20T14:28:08;22.70;99.90
16964;DHT22;8598;50.508;10.436;2023-07-20T14:30:34;22.80;99.90
16964;DHT22;8598;50.508;10.436;2023-07-20T14:33:01;22.40;99.90
16964;DHT22;8598;50.508;10.436;2023-07-20T14:35:28;22.20;99.90
16964;DHT22;8598;50.508;10.436;2023-07-20T14:37:54;22.30;99.90
16964;DHT22;8598;50.508;10.436;2023-07-20T14:40:21;22.30;99.90
16964;DHT22;8598;50.508;10.436;2023-07-20T14:42:48;22.10;99.90
16964;DHT22;8598;50.508;10.436;2023-07-20T14:45:16;22.10;99.90
16964;DHT22;8598;50.508;10.436;2023-07-20T14:47:42;21.70;99.90
16964;DHT22;8598;50.508;10.436;2023-07-20T14:50:09;21.90;99.90
16964;DHT22;8598;50.508;10.436;2023-07-20T14:52:36;22.00;99.90
16964;DHT22;8598;50.508;10.436;2023-07-20T14:55:04;22.30;99.90
16964;DHT22;8598;50.508;10.436;2023-07-20T14:57:31;22.30;99.90
16964;DHT22;8598;50.508;10.436;2023-07-20T14:59:57;21.90;99.90
16964;DHT22;8598;50.508;10.436;2023-07-20T15:02:25;21.70;99.90
16964;DHT22;8598;50.508;10.436;2023-07-20T15:04:52;22.00;99.90
16964;DHT22;8598;50.508;10.436;2023-07-20T15:07:20;22.20;99.90
16964;DHT22;8598;50.508;10.436;2023-07-20T15:09:48;22.40;99.90
16964;DHT22;8598;50.508;10.436;2023-07-20T15:12:14;22.40;99.90
16964;DHT22;8598;50.508;10.436;2023-07-20T15:14:42;22.20;99.90
16964;DHT22;8598;50.508;10.436;2023-07-20T15:17:09;22.40;99.90
16964;DHT22;8598;50.508;10.436;2023-07-20T15:19:37;22.40;99.90
16964;DHT22;8598;50.508;10.436;2023-07-20T15:22:04;22.20;99.90
16964;DHT22;8598;50.508;10.436;2023-07-20T15:24:32;22.20;99.90
16964;DHT22;8598;50.508;10.436;2023-07-20T15:26:59;22.20;99.90
16964;DHT22;8598;50.508;10.436;2023-07-20T15:29:26;21.90;99.90
16964;DHT22;8598;50.508;10.436;2023-07-20T15:31:53;21.70;99.90
16964;DHT22;8598;50.508;10.436;2023-07-20T15:34:19;21.50;99.90
16964;DHT22;8598;50.508;10.436;2023-07-20T15:36:47;21.40;99.90